Pagrindinis puslapis
METAR-TAF:

METAR-TAF

Oro uostai :

Abu Dabis, Jungtiniai Arabų Emyratai

platuma: 24-26N, ilguma: 054-39E, Aukštis: 16 m

Dabartinis oras

Ataskaita buvo paskelbta 1 valandą ir 13 minutes, ne 17:00 UTC
Vėjas 8 kt iš Šiaurės/Šiaurės Rytų
Temperatūra 20°C
Drėgmė 68%
Slėgis 1017 hPa
Matomumas 10 km arba daugiau
nėra debesų žemiau 1500 m ir nėra kamuolinių lietaus debesų

METAR: OMAA 221700Z 03008KT CAVOK 20/14 Q1017 NOSIG

Laikas: 22:13 (18:13 UTC)

Prognozė

Ataskaita buvo paskelbta 1 valandą ir 13 minutes, ne 17:00 UTC
Prognozė galioja nuo 22 metu 18 UTC su 24 metu 00 UTC
Vėjas 5 kt iš Rytų/Šiaurės Rytų
Matomumas: 8000 m
Tapsmas
nuo 22 metu 23 UTC su 23 metu 01 UTC
Vėjas 12 kt iš Pietų
Tikimybė 40% :
Laikinai
nuo 23 metu 04 UTC su 23 metu 09 UTC
Vėjas 15 kt iš Pietų su gūsio iki 25 kt
Matomumas: 3000 m
Dulkes pustymas
Tapsmas
nuo 23 metu 12 UTC su 23 metu 14 UTC
Vėjas 10 kt iš Šiaurės/Šiaurės Vakarų

TAF: OMAA 221700Z 2218/2400 06005KT 8000 NSC BECMG 2223/2301 18012KT PROB40 TEMPO 2304/2309 18015G25KT 3000 BLDU BECMG 2312/2314 33010KT

Orai ataskaitas ir orų prognozės (METAR, TAF).

turimą stotys yra geltonos ir raudonos taškus žemėlapyje.

Perkelti pele per norėdami pamatyti stoties vardą.

Tada spustelėkite, norėdami matyti oro stebėjimo ir prognozės.

Norėdami pakeisti žemėlapį: spustelėkite ant žalios mygtukų su juodo kryžiaus žemyn,; žalią mygtuką su brūkšneliu, jei norite nutolinti; arba žalių rodyklių gretimoms žemėlapius.


METAR-TAF: